createdAt,value
2022-08-27T00:02:09.832Z,19.60
2022-08-27T00:04:39.277Z,17.50
2022-08-27T00:07:08.445Z,14.80
2022-08-27T00:09:37.726Z,15.40
2022-08-27T00:12:08.448Z,15.30
2022-08-27T00:14:38.602Z,14.10
2022-08-27T00:17:07.816Z,17.20
2022-08-27T00:19:36.749Z,15.60
2022-08-27T00:22:06.469Z,16.60
2022-08-27T00:24:36.139Z,16.60
2022-08-27T00:27:17.283Z,18.20
2022-08-27T00:29:47.112Z,12.20
2022-08-27T00:32:16.178Z,15.20
2022-08-27T00:34:44.222Z,15.40
2022-08-27T00:37:12.130Z,15.90
2022-08-27T00:39:39.901Z,15.30
2022-08-27T00:42:08.312Z,15.70
2022-08-27T00:44:36.450Z,15.50
2022-08-27T00:47:13.059Z,15.00
2022-08-27T00:49:57.282Z,19.30
2022-08-27T00:52:32.354Z,16.10
2022-08-27T00:55:14.907Z,13.90
2022-08-27T00:57:47.999Z,16.90
2022-08-27T01:00:18.723Z,16.80
2022-08-27T01:02:47.659Z,14.80
2022-08-27T01:05:25.372Z,14.40
2022-08-27T01:07:59.404Z,15.60
2022-08-27T01:10:30.381Z,12.80
2022-08-27T01:12:58.634Z,18.40
2022-08-27T01:15:29.013Z,14.30
2022-08-27T01:17:58.602Z,14.80
2022-08-27T01:20:34.932Z,14.50
2022-08-27T01:23:55.322Z,13.40
2022-08-27T01:26:23.505Z,16.80
2022-08-27T01:28:53.104Z,17.50
2022-08-27T01:31:20.939Z,16.60
2022-08-27T01:34:03.682Z,18.30
2022-08-27T01:36:32.135Z,14.20
2022-08-27T01:39:00.693Z,18.90
2022-08-27T01:41:28.480Z,16.10
2022-08-27T01:43:56.765Z,17.30
2022-08-27T01:46:28.594Z,21.00
2022-08-27T01:48:56.415Z,21.10
2022-08-27T01:51:24.242Z,15.00
2022-08-27T01:53:51.935Z,18.60
2022-08-27T01:56:19.857Z,20.60
2022-08-27T01:58:47.560Z,16.20
2022-08-27T02:01:19.473Z,19.30
2022-08-27T02:03:48.392Z,18.50
2022-08-27T02:06:16.222Z,18.10
2022-08-27T02:08:43.986Z,17.30
2022-08-27T02:11:12.351Z,17.80
2022-08-27T02:13:40.273Z,17.70
2022-08-27T02:16:09.031Z,20.00
2022-08-27T02:18:38.411Z,20.80
2022-08-27T02:21:10.386Z,24.10
2022-08-27T02:23:38.352Z,22.00
2022-08-27T02:26:06.354Z,19.50
2022-08-27T02:28:35.871Z,19.30
2022-08-27T02:31:05.022Z,22.60
2022-08-27T02:33:35.001Z,18.80
2022-08-27T02:36:03.770Z,22.70
2022-08-27T02:38:34.173Z,19.70
2022-08-27T02:41:01.915Z,28.70
2022-08-27T02:43:29.765Z,18.80
2022-08-27T02:45:57.482Z,24.90
2022-08-27T02:48:25.541Z,22.40
2022-08-27T02:50:54.737Z,21.40
2022-08-27T02:53:22.397Z,21.90
2022-08-27T02:55:52.237Z,19.20
2022-08-27T02:58:19.914Z,22.70
2022-08-27T03:00:48.303Z,21.00
2022-08-27T03:03:16.547Z,19.00
2022-08-27T03:05:45.291Z,21.10
2022-08-27T03:08:13.122Z,20.20
2022-08-27T03:10:41.893Z,23.50
2022-08-27T03:13:09.680Z,22.30
2022-08-27T03:15:37.467Z,20.00
2022-08-27T03:18:21.552Z,22.60
2022-08-27T03:20:55.964Z,25.00
2022-08-27T03:23:32.845Z,21.80
2022-08-27T03:26:09.967Z,21.20
2022-08-27T03:28:38.038Z,21.90
2022-08-27T03:31:15.875Z,17.30
2022-08-27T03:33:43.577Z,18.20
2022-08-27T03:36:14.129Z,22.00
2022-08-27T03:38:41.873Z,21.50
2022-08-27T03:41:09.935Z,21.40
2022-08-27T03:43:37.632Z,23.10
2022-08-27T03:46:08.606Z,23.70
2022-08-27T03:48:36.645Z,24.50
2022-08-27T03:51:09.748Z,18.20
2022-08-27T03:53:40.549Z,24.10
2022-08-27T03:56:09.121Z,25.00
2022-08-27T03:58:38.991Z,21.70
2022-08-27T04:01:08.472Z,21.10
2022-08-27T04:03:37.413Z,22.80
2022-08-27T04:06:05.504Z,24.60
2022-08-27T04:08:33.326Z,20.90
2022-08-27T04:11:05.894Z,21.50
2022-08-27T04:13:33.721Z,19.20
2022-08-27T04:16:02.061Z,23.00
2022-08-27T04:18:29.799Z,23.50
2022-08-27T04:20:57.905Z,28.80
2022-08-27T04:23:25.624Z,24.30
2022-08-27T04:25:53.312Z,20.70
2022-08-27T04:28:21.312Z,22.50
2022-08-27T04:30:49.250Z,26.40
2022-08-27T04:33:17.369Z,27.60
2022-08-27T04:35:45.082Z,26.00
2022-08-27T04:38:12.990Z,22.90
2022-08-27T04:40:59.170Z,23.40
2022-08-27T04:43:28.251Z,26.90
2022-08-27T04:45:56.563Z,24.80
2022-08-27T04:48:25.721Z,37.00
2022-08-27T04:50:53.663Z,24.90
2022-08-27T04:53:22.113Z,23.70
2022-08-27T04:55:55.933Z,23.80
2022-08-27T04:58:26.335Z,26.60
2022-08-27T05:01:01.611Z,25.40
2022-08-27T05:03:29.416Z,25.70
2022-08-27T05:06:04.802Z,27.90
2022-08-27T05:08:34.025Z,24.30
2022-08-27T05:11:02.365Z,24.50
2022-08-27T05:13:30.351Z,27.50
2022-08-27T05:16:08.339Z,23.80
2022-08-27T05:18:47.693Z,22.80
2022-08-27T05:21:34.094Z,26.50
2022-08-27T05:24:04.237Z,25.20
2022-08-27T05:26:34.949Z,24.30
2022-08-27T05:29:06.308Z,25.90
2022-08-27T05:34:10.744Z,29.60
2022-08-27T05:36:47.835Z,26.50
2022-08-27T05:39:17.808Z,25.40
2022-08-27T05:41:45.674Z,26.90
2022-08-27T05:47:03.654Z,30.10
2022-08-27T05:49:31.799Z,22.30
2022-08-27T05:51:59.542Z,23.60
2022-08-27T05:54:27.287Z,24.00
2022-08-27T05:56:55.180Z,23.80
2022-08-27T05:59:45.994Z,25.70
2022-08-27T06:02:13.798Z,27.30
2022-08-27T06:04:41.682Z,23.90
2022-08-27T06:07:10.593Z,25.90
2022-08-27T06:09:39.247Z,27.70
2022-08-27T06:12:08.021Z,24.30
2022-08-27T06:14:37.337Z,23.40
2022-08-27T06:17:06.409Z,27.90
2022-08-27T06:19:36.281Z,24.10
2022-08-27T06:22:10.057Z,22.60
2022-08-27T06:24:41.870Z,25.20
2022-08-27T06:27:14.003Z,23.00
2022-08-27T06:29:43.329Z,22.50
2022-08-27T06:32:13.125Z,20.80
2022-08-27T06:34:41.051Z,26.10
2022-08-27T06:37:09.290Z,29.00
2022-08-27T06:39:39.721Z,27.00
2022-08-27T06:44:42.071Z,22.70
2022-08-27T06:47:10.199Z,33.20
2022-08-27T06:49:41.308Z,24.90
2022-08-27T06:52:11.610Z,24.30
2022-08-27T06:54:40.266Z,24.90
2022-08-27T06:57:08.040Z,24.70
2022-08-27T06:59:35.985Z,23.60
2022-08-27T07:02:04.218Z,24.50
2022-08-27T07:04:33.022Z,28.90
2022-08-27T07:07:02.706Z,23.20
2022-08-27T07:09:34.400Z,25.70
2022-08-27T07:12:02.469Z,23.00
2022-08-27T07:14:35.677Z,26.40
2022-08-27T07:17:11.189Z,27.00
2022-08-27T07:19:44.355Z,28.00
2022-08-27T07:22:13.074Z,23.80
2022-08-27T07:24:41.093Z,23.30
2022-08-27T07:27:09.610Z,20.30
2022-08-27T07:29:37.408Z,21.20
2022-08-27T07:32:05.473Z,21.00
2022-08-27T07:34:33.153Z,22.80
2022-08-27T07:37:00.847Z,21.10
2022-08-27T07:39:28.589Z,18.10
2022-08-27T07:42:16.621Z,21.80
2022-08-27T07:44:44.471Z,21.00
2022-08-27T07:47:12.297Z,24.50
2022-08-27T07:49:41.096Z,22.00
2022-08-27T07:52:08.825Z,22.90
2022-08-27T07:54:36.596Z,19.00
2022-08-27T07:57:04.875Z,19.60
2022-08-27T07:59:33.087Z,22.30
2022-08-27T08:02:01.082Z,21.10
2022-08-27T08:04:29.021Z,19.50
2022-08-27T08:06:56.854Z,19.60
2022-08-27T08:09:24.984Z,22.70
2022-08-27T08:11:54.050Z,17.40
2022-08-27T08:14:22.473Z,21.60
2022-08-27T08:16:50.630Z,17.70
2022-08-27T08:19:18.422Z,20.00
2022-08-27T08:21:46.093Z,16.40
2022-08-27T08:24:13.774Z,18.60
2022-08-27T08:26:42.041Z,15.60
2022-08-27T08:29:16.662Z,17.30
2022-08-27T08:31:50.243Z,14.50
2022-08-27T08:34:19.983Z,12.10
2022-08-27T08:36:53.982Z,15.40
2022-08-27T08:39:24.160Z,15.50
2022-08-27T08:41:57.286Z,12.90
2022-08-27T08:44:41.295Z,18.90
2022-08-27T08:47:50.589Z,14.40
2022-08-27T08:50:30.592Z,17.20
2022-08-27T08:53:11.638Z,13.40
2022-08-27T08:55:48.790Z,14.20
2022-08-27T08:58:40.610Z,12.60
2022-08-27T09:01:10.210Z,16.90
2022-08-27T09:03:42.137Z,15.40
2022-08-27T09:06:27.714Z,18.90
2022-08-27T09:08:56.148Z,15.60
2022-08-27T09:11:51.711Z,13.20
2022-08-27T09:14:32.233Z,12.90
2022-08-27T09:17:02.577Z,13.90
2022-08-27T09:19:37.151Z,10.20
2022-08-27T09:22:38.331Z,12.10
2022-08-27T09:25:25.524Z,9.80
2022-08-27T09:27:57.545Z,13.30
2022-08-27T09:30:32.059Z,11.90
2022-08-27T09:33:04.394Z,15.90
2022-08-27T09:35:42.234Z,18.10
2022-08-27T09:38:10.839Z,14.20
2022-08-27T09:40:47.073Z,10.30
2022-08-27T09:43:17.446Z,10.50
2022-08-27T09:45:59.678Z,10.60
2022-08-27T09:48:32.489Z,9.00
2022-08-27T09:51:21.742Z,11.40
2022-08-27T09:53:57.468Z,9.60
2022-08-27T09:56:39.160Z,10.70
2022-08-27T09:59:24.655Z,15.20
2022-08-27T10:02:04.288Z,11.00
2022-08-27T10:04:51.398Z,13.10
2022-08-27T10:07:53.805Z,8.70
2022-08-27T10:10:38.475Z,11.30
2022-08-27T10:13:20.379Z,12.70
2022-08-27T10:16:09.762Z,12.40
2022-08-27T10:18:56.717Z,11.70
2022-08-27T10:21:45.792Z,9.40
2022-08-27T10:25:17.045Z,8.60
2022-08-27T10:27:59.500Z,9.50
2022-08-27T10:31:00.529Z,7.10
2022-08-27T10:34:22.217Z,10.60
2022-08-27T10:37:16.055Z,9.10
2022-08-27T10:40:03.508Z,8.30
2022-08-27T10:43:17.070Z,12.40
2022-08-27T10:46:04.157Z,8.80
2022-08-27T10:48:53.974Z,9.50
2022-08-27T10:51:53.698Z,8.70
2022-08-27T10:54:31.900Z,9.60
2022-08-27T10:57:40.255Z,5.00
2022-08-27T11:00:21.199Z,8.00
2022-08-27T11:02:58.618Z,8.40
2022-08-27T11:05:36.972Z,8.00
2022-08-27T11:08:19.738Z,11.00
2022-08-27T11:10:53.566Z,6.40
2022-08-27T11:13:33.777Z,8.90
2022-08-27T11:16:10.703Z,9.40
2022-08-27T11:19:02.689Z,8.60
2022-08-27T11:22:07.114Z,7.40
2022-08-27T11:24:59.750Z,9.40
2022-08-27T11:27:32.808Z,7.50
2022-08-27T11:30:29.227Z,6.20
2022-08-27T11:33:21.134Z,9.50
2022-08-27T11:36:32.005Z,8.60
2022-08-27T11:39:33.737Z,8.90
2022-08-27T11:42:14.073Z,6.80
2022-08-27T11:44:50.771Z,7.80
2022-08-27T11:47:26.245Z,9.90
2022-08-27T11:50:01.386Z,6.30
2022-08-27T11:52:41.803Z,9.10
2022-08-27T11:55:21.654Z,8.40
2022-08-27T11:58:09.454Z,7.90
2022-08-27T12:00:42.097Z,6.90
2022-08-27T12:03:19.016Z,8.90
2022-08-27T12:05:54.140Z,7.50
2022-08-27T12:08:21.837Z,7.10
2022-08-27T12:11:27.484Z,6.60
2022-08-27T12:14:32.281Z,9.10
2022-08-27T12:17:08.228Z,6.30
2022-08-27T12:19:57.030Z,9.60
2022-08-27T12:23:09.576Z,6.70
2022-08-27T12:25:37.323Z,7.00
2022-08-27T12:28:09.288Z,8.10
2022-08-27T12:30:41.387Z,7.90
2022-08-27T12:33:26.523Z,5.30
2022-08-27T12:35:58.013Z,7.40
2022-08-27T12:38:31.931Z,10.80
2022-08-27T12:41:04.052Z,5.70
2022-08-27T12:43:35.538Z,8.20
2022-08-27T12:46:06.676Z,10.20
2022-08-27T12:48:41.873Z,11.10
2022-08-27T12:51:31.246Z,7.40
2022-08-27T12:54:13.176Z,11.40
2022-08-27T12:56:58.889Z,8.60
2022-08-27T13:00:00.052Z,7.90
2022-08-27T13:04:55.847Z,8.10
2022-08-27T13:07:38.293Z,8.90
2022-08-27T13:10:18.409Z,8.40
2022-08-27T13:12:48.977Z,7.40
2022-08-27T13:15:19.974Z,8.50
2022-08-27T13:20:24.587Z,7.40
2022-08-27T13:22:54.252Z,8.50
2022-08-27T13:25:36.772Z,6.30
2022-08-27T13:28:13.250Z,8.40
2022-08-27T13:30:45.968Z,9.30
2022-08-27T13:33:22.169Z,7.70
2022-08-27T13:35:51.228Z,10.10
2022-08-27T13:38:22.524Z,8.80
2022-08-27T13:40:57.980Z,10.10
2022-08-27T13:43:43.529Z,10.00
2022-08-27T13:46:21.478Z,7.50
2022-08-27T13:48:54.882Z,8.40
2022-08-27T13:51:33.351Z,6.50
2022-08-27T13:54:12.943Z,6.50
2022-08-27T13:56:48.974Z,7.00
2022-08-27T13:59:20.036Z,6.00
2022-08-27T14:02:31.867Z,7.60
2022-08-27T14:05:28.067Z,9.00
2022-08-27T14:08:13.325Z,6.80
2022-08-27T14:10:47.697Z,10.30
2022-08-27T14:13:23.670Z,5.50
2022-08-27T14:16:00.257Z,7.00
2022-08-27T14:18:57.415Z,8.60
2022-08-27T14:21:22.702Z,8.50
2022-08-27T14:23:52.359Z,6.30
2022-08-27T14:26:20.377Z,6.30
2022-08-27T14:28:48.429Z,9.00
2022-08-27T14:31:16.582Z,7.80
2022-08-27T14:33:47.417Z,8.50
2022-08-27T14:36:16.313Z,8.80
2022-08-27T14:38:48.085Z,7.50
2022-08-27T14:41:17.194Z,6.00
2022-08-27T14:43:49.757Z,7.80
2022-08-27T14:46:30.070Z,7.50
2022-08-27T14:49:00.950Z,8.70
2022-08-27T14:51:32.159Z,9.00
2022-08-27T14:53:59.828Z,5.80
2022-08-27T14:56:27.578Z,11.30
2022-08-27T14:58:55.630Z,9.60
2022-08-27T15:01:26.131Z,8.50
2022-08-27T15:03:54.850Z,8.50
2022-08-27T15:06:23.994Z,6.80
2022-08-27T15:08:52.253Z,8.10
2022-08-27T15:11:28.051Z,9.60
2022-08-27T15:13:58.135Z,6.30
2022-08-27T15:16:31.361Z,7.90
2022-08-27T15:19:01.433Z,8.20
2022-08-27T15:21:31.073Z,5.80
2022-08-27T15:24:03.425Z,8.30
2022-08-27T15:26:31.627Z,7.20
2022-08-27T15:29:04.095Z,7.50
2022-08-27T15:31:34.886Z,8.40
2022-08-27T15:34:03.145Z,7.10
2022-08-27T15:36:30.850Z,7.20
2022-08-27T15:38:58.561Z,7.50
2022-08-27T15:41:29.286Z,7.90
2022-08-27T15:46:26.563Z,8.80
2022-08-27T15:48:54.331Z,6.40
2022-08-27T15:51:29.067Z,9.50
2022-08-27T15:53:58.195Z,8.40
2022-08-27T15:56:29.456Z,7.00
2022-08-27T15:59:00.308Z,7.70
2022-08-27T16:01:35.843Z,5.90
2022-08-27T16:04:06.100Z,8.90
2022-08-27T16:06:34.969Z,7.30
2022-08-27T16:09:04.769Z,8.60
2022-08-27T16:11:32.641Z,8.80
2022-08-27T16:14:01.349Z,5.40
2022-08-27T16:16:32.408Z,6.90
2022-08-27T16:19:02.882Z,7.50
2022-08-27T16:21:31.102Z,6.30
2022-08-27T16:23:58.789Z,6.50
2022-08-27T16:26:26.501Z,6.90
2022-08-27T16:28:54.473Z,4.30
2022-08-27T16:31:22.252Z,9.60
2022-08-27T16:33:50.186Z,7.50
2022-08-27T16:36:18.482Z,6.40
2022-08-27T16:38:46.278Z,6.60
2022-08-27T16:41:14.265Z,6.70
2022-08-27T16:43:43.302Z,6.40
2022-08-27T16:46:11.098Z,6.70
2022-08-27T16:49:01.208Z,6.70
2022-08-27T16:51:34.522Z,6.60
2022-08-27T16:54:06.189Z,6.10
2022-08-27T16:56:37.770Z,7.10
2022-08-27T16:59:07.553Z,6.90
2022-08-27T17:01:35.399Z,7.60
2022-08-27T17:04:10.493Z,8.20
2022-08-27T17:06:44.709Z,5.60
2022-08-27T17:09:13.955Z,6.60
2022-08-27T17:11:43.532Z,7.50
2022-08-27T17:14:12.238Z,4.50
2022-08-27T17:16:41.593Z,5.00
2022-08-27T17:19:16.825Z,7.50
2022-08-27T17:21:46.051Z,8.20
2022-08-27T17:24:13.958Z,4.10
2022-08-27T17:26:41.674Z,5.40
2022-08-27T17:29:09.689Z,7.90
2022-08-27T17:31:41.629Z,6.10
2022-08-27T17:34:21.538Z,5.10
2022-08-27T17:36:51.928Z,5.70
2022-08-27T17:39:20.791Z,5.80
2022-08-27T17:41:52.626Z,3.70
2022-08-27T17:44:31.706Z,7.40
2022-08-27T17:47:05.825Z,7.60
2022-08-27T17:49:34.507Z,4.50
2022-08-27T17:52:09.634Z,3.60
2022-08-27T17:54:37.235Z,5.00
2022-08-27T17:57:16.401Z,4.40
2022-08-27T17:59:45.151Z,5.00
2022-08-27T18:02:22.132Z,5.90
2022-08-27T18:04:50.781Z,9.20
2022-08-27T18:07:19.423Z,4.70
2022-08-27T18:09:49.029Z,6.20
2022-08-27T18:12:21.692Z,5.30
2022-08-27T18:15:02.102Z,5.10
2022-08-27T18:17:30.215Z,7.60
2022-08-27T18:19:59.390Z,5.40
2022-08-27T18:22:27.900Z,8.70
2022-08-27T18:25:02.892Z,7.10
2022-08-27T18:27:34.019Z,7.90
2022-08-27T18:32:31.078Z,9.70
2022-08-27T18:35:14.977Z,10.40
2022-08-27T18:37:42.676Z,8.70
2022-08-27T18:40:12.842Z,10.20
2022-08-27T18:42:41.209Z,10.90
2022-08-27T18:45:16.642Z,10.90
2022-08-27T18:47:45.279Z,6.90
2022-08-27T18:50:17.518Z,11.30
2022-08-27T18:52:49.974Z,7.60
2022-08-27T18:55:24.705Z,8.70
2022-08-27T18:57:52.491Z,7.90
2022-08-27T19:00:21.137Z,8.50
2022-08-27T19:02:53.476Z,8.60
2022-08-27T19:05:26.921Z,9.00
2022-08-27T19:07:58.175Z,7.90
2022-08-27T19:10:26.942Z,7.60
2022-08-27T19:12:55.030Z,9.70
2022-08-27T19:15:23.047Z,12.70
2022-08-27T19:17:57.371Z,10.20
2022-08-27T19:20:27.412Z,8.80
2022-08-27T19:22:55.813Z,10.90
2022-08-27T19:25:23.543Z,11.00
2022-08-27T19:27:52.693Z,10.50
2022-08-27T19:30:20.711Z,10.60
2022-08-27T19:32:48.416Z,8.60
2022-08-27T19:35:22.782Z,7.40
2022-08-27T19:37:53.261Z,10.50
2022-08-27T19:40:22.911Z,12.20
2022-08-27T19:42:51.118Z,6.90
2022-08-27T19:45:23.109Z,7.80
2022-08-27T19:47:53.040Z,7.70
2022-08-27T19:50:23.588Z,10.80
2022-08-27T19:52:52.399Z,10.70
2022-08-27T19:55:20.816Z,11.00
2022-08-27T19:57:49.914Z,9.30
2022-08-27T20:00:22.239Z,10.10
2022-08-27T20:02:50.755Z,12.40
2022-08-27T20:05:21.178Z,8.90
2022-08-27T20:07:52.752Z,9.20
2022-08-27T20:13:00.818Z,10.10
2022-08-27T20:15:28.533Z,10.10
2022-08-27T20:17:59.197Z,8.80
2022-08-27T20:22:57.234Z,11.10
2022-08-27T20:25:26.363Z,12.30
2022-08-27T20:27:54.616Z,10.50
2022-08-27T20:30:27.884Z,11.70
2022-08-27T20:32:57.183Z,10.80
2022-08-27T20:35:27.550Z,13.30
2022-08-27T20:37:55.370Z,10.50
2022-08-27T20:40:33.193Z,12.50
2022-08-27T20:43:01.910Z,12.00
2022-08-27T20:45:32.302Z,9.60
2022-08-27T20:48:00.860Z,9.30
2022-08-27T20:50:32.173Z,10.80
2022-08-27T20:53:00.738Z,13.60
2022-08-27T20:55:30.008Z,9.00
2022-08-27T20:58:16.160Z,8.20
2022-08-27T21:00:43.937Z,9.10
2022-08-27T21:03:15.003Z,8.40
2022-08-27T21:05:46.997Z,8.10
2022-08-27T21:08:18.653Z,9.80
2022-08-27T21:10:54.955Z,7.10
2022-08-27T21:13:24.794Z,7.20
2022-08-27T21:15:54.603Z,6.80
2022-08-27T21:18:29.952Z,9.40
2022-08-27T21:21:04.736Z,10.00
2022-08-27T21:23:35.446Z,8.10
2022-08-27T21:26:10.045Z,8.10
2022-08-27T21:28:41.578Z,9.40
2022-08-27T21:31:10.142Z,10.70
2022-08-27T21:33:39.667Z,6.50
2022-08-27T21:36:11.834Z,6.60
2022-08-27T21:38:40.710Z,8.00
2022-08-27T21:41:09.057Z,10.00
2022-08-27T21:43:37.425Z,12.00
2022-08-27T21:46:05.870Z,12.00
2022-08-27T21:48:34.026Z,8.70
2022-08-27T21:51:12.104Z,8.10
2022-08-27T21:53:41.026Z,6.60
2022-08-27T21:56:12.112Z,12.00
2022-08-27T21:58:40.722Z,9.50
2022-08-27T22:01:08.687Z,8.30
2022-08-27T22:03:36.854Z,9.10
2022-08-27T22:06:07.212Z,11.50
2022-08-27T22:08:35.175Z,12.20
2022-08-27T22:11:03.065Z,10.70
2022-08-27T22:13:32.693Z,11.40
2022-08-27T22:16:00.623Z,10.40
2022-08-27T22:18:28.813Z,12.10
2022-08-27T22:20:58.818Z,9.30
2022-08-27T22:23:27.524Z,10.90
2022-08-27T22:25:55.346Z,11.90
2022-08-27T22:28:23.462Z,14.10
2022-08-27T22:30:51.310Z,12.80
2022-08-27T22:33:19.068Z,14.00
2022-08-27T22:35:47.723Z,11.50
2022-08-27T22:38:15.669Z,9.80
2022-08-27T22:40:43.921Z,11.50
2022-08-27T22:43:12.534Z,9.60
2022-08-27T22:45:40.299Z,10.20
2022-08-27T22:48:08.256Z,12.00
2022-08-27T22:50:36.081Z,11.40
2022-08-27T22:53:04.292Z,10.20
2022-08-27T22:55:31.992Z,11.00
2022-08-27T22:58:02.047Z,12.20
2022-08-27T23:00:35.437Z,10.20
2022-08-27T23:03:07.135Z,10.00
2022-08-27T23:05:41.753Z,9.30
2022-08-27T23:08:14.103Z,6.50
2022-08-27T23:10:43.495Z,11.10
2022-08-27T23:13:13.298Z,10.80
2022-08-27T23:15:42.123Z,13.50
2022-08-27T23:18:10.377Z,10.10
2022-08-27T23:20:38.174Z,8.60
2022-08-27T23:23:07.967Z,10.70
2022-08-27T23:25:54.880Z,9.80
2022-08-27T23:28:23.490Z,8.10
2022-08-27T23:30:51.904Z,8.70
2022-08-27T23:33:20.077Z,11.60
2022-08-27T23:35:51.317Z,11.30
2022-08-27T23:40:50.353Z,7.80
2022-08-27T23:43:18.440Z,10.60
2022-08-27T23:45:46.292Z,10.60
2022-08-27T23:48:14.293Z,7.10
2022-08-27T23:50:42.851Z,10.40
2022-08-27T23:53:11.838Z,9.60
2022-08-27T23:55:40.950Z,10.70
2022-08-27T23:58:09.897Z,9.50
